createdAt,value
2022-11-14T00:00:47.150Z,101475.00
2022-11-14T00:03:34.662Z,101491.25
2022-11-14T00:06:22.403Z,101490.38
2022-11-14T00:09:09.667Z,101476.59
2022-11-14T00:11:56.933Z,101472.34
2022-11-14T00:14:45.927Z,101493.88
2022-11-14T00:17:32.911Z,101495.56
2022-11-14T00:20:20.259Z,101499.03
2022-11-14T00:23:07.542Z,101493.88
2022-11-14T00:25:54.685Z,101483.34
2022-11-14T00:28:41.781Z,101484.09
2022-11-14T00:31:30.416Z,101486.06
2022-11-14T00:34:18.006Z,101455.53
2022-11-14T00:37:05.819Z,101488.00
2022-11-14T00:39:52.975Z,101487.31
2022-11-14T00:42:40.035Z,101309.22
2022-11-14T00:45:27.173Z,101482.09
2022-11-14T00:48:15.911Z,101463.47
2022-11-14T00:51:06.375Z,101469.38
2022-11-14T00:53:53.641Z,101466.81
2022-11-14T00:56:41.088Z,101437.16
2022-11-14T00:59:28.296Z,101453.19
2022-11-14T01:02:15.252Z,101454.13
2022-11-14T01:05:03.942Z,101457.50
2022-11-14T01:07:51.185Z,101312.09
2022-11-14T01:10:41.194Z,101248.84
2022-11-14T01:13:33.157Z,101447.50
2022-11-14T01:16:22.884Z,101462.81
2022-11-14T01:19:10.153Z,101455.16
2022-11-14T01:22:03.137Z,101448.13
2022-11-14T01:24:58.411Z,101437.41
2022-11-14T01:27:45.739Z,101424.38
2022-11-14T01:30:32.977Z,101445.88
2022-11-14T01:33:22.773Z,101416.81
2022-11-14T01:36:11.711Z,101433.84
2022-11-14T01:39:00.511Z,101430.31
2022-11-14T01:41:47.560Z,101434.88
2022-11-14T01:44:56.048Z,101417.72
2022-11-14T01:47:43.702Z,101417.69
2022-11-14T01:50:30.819Z,101401.56
2022-11-14T01:53:18.130Z,101413.69
2022-11-14T01:56:11.229Z,101409.56
2022-11-14T01:59:03.787Z,101390.56
2022-11-14T02:01:52.757Z,101399.06
2022-11-14T02:04:45.019Z,101384.66
2022-11-14T02:07:37.092Z,101383.56
2022-11-14T02:10:27.248Z,101382.19
2022-11-14T02:13:16.305Z,101371.03
2022-11-14T02:16:03.556Z,101371.00
2022-11-14T02:18:50.842Z,101375.31
2022-11-14T02:21:39.841Z,101365.06
2022-11-14T02:24:26.987Z,101373.81
2022-11-14T02:27:15.659Z,101342.06
2022-11-14T02:30:06.429Z,101358.19
2022-11-14T02:33:11.038Z,101352.19
2022-11-14T02:36:01.363Z,101345.47
2022-11-14T02:38:50.053Z,101351.31
2022-11-14T02:41:39.849Z,101350.69
2022-11-14T02:44:27.284Z,101355.84
2022-11-14T02:47:14.437Z,101351.56
2022-11-14T02:50:01.598Z,101347.31
2022-11-14T02:52:49.335Z,101320.31
2022-11-14T02:55:40.704Z,101344.84
2022-11-14T02:58:27.863Z,101346.56
2022-11-14T03:01:20.896Z,101294.56
2022-11-14T03:04:09.744Z,101308.91
2022-11-14T03:06:57.236Z,101323.56
2022-11-14T03:09:44.449Z,101326.84
2022-11-14T03:12:33.470Z,101317.19
2022-11-14T03:15:20.708Z,101311.50
2022-11-14T03:18:08.454Z,101307.91
2022-11-14T03:20:55.961Z,101311.44
2022-11-14T03:23:44.246Z,101068.09
2022-11-14T03:26:31.892Z,101287.81
2022-11-14T03:29:20.630Z,101315.16
2022-11-14T03:32:08.168Z,101302.41
2022-11-14T03:34:55.491Z,101312.63
2022-11-14T03:37:42.762Z,101274.88
2022-11-14T03:40:32.332Z,101301.44
2022-11-14T03:43:20.721Z,101306.66
2022-11-14T03:46:12.011Z,101303.38
2022-11-14T03:48:59.606Z,101304.13
2022-11-14T03:51:49.287Z,101309.56
2022-11-14T03:54:36.717Z,101269.47
2022-11-14T03:57:24.031Z,101298.44
2022-11-14T04:00:12.383Z,101295.00
2022-11-14T04:03:00.978Z,101274.44
2022-11-14T04:05:51.082Z,101295.94
2022-11-14T04:08:41.021Z,101293.06
2022-11-14T04:11:28.385Z,101292.63
2022-11-14T04:14:15.586Z,101291.75
2022-11-14T04:17:02.612Z,101286.59
2022-11-14T04:19:51.409Z,101279.72
2022-11-14T04:22:38.879Z,101278.06
2022-11-14T04:25:26.158Z,101269.56
2022-11-14T04:28:16.053Z,101275.34
2022-11-14T04:31:03.679Z,101265.19
2022-11-14T04:33:51.262Z,101260.91
2022-11-14T04:36:39.849Z,101249.06
2022-11-14T04:39:29.289Z,101269.47
2022-11-14T04:42:16.547Z,101255.84
2022-11-14T04:45:04.695Z,101255.34
2022-11-14T04:47:52.089Z,101265.38
2022-11-14T04:50:39.274Z,101253.38
2022-11-14T04:53:28.088Z,101261.06
2022-11-14T04:56:15.320Z,101264.44
2022-11-14T04:59:03.249Z,101266.25
2022-11-14T05:01:51.065Z,101253.41
2022-11-14T05:04:38.819Z,101238.19
2022-11-14T05:07:25.931Z,101250.94
2022-11-14T05:10:14.980Z,101244.94
2022-11-14T05:13:03.740Z,101231.91
2022-11-14T05:15:51.417Z,101202.06
2022-11-14T05:18:42.883Z,101210.59
2022-11-14T05:21:33.302Z,101224.31
2022-11-14T05:24:21.076Z,101224.38
2022-11-14T05:27:10.156Z,101218.41
2022-11-14T05:29:57.549Z,101170.66
2022-11-14T05:32:44.818Z,101209.88
2022-11-14T05:35:32.143Z,101206.59
2022-11-14T05:38:19.773Z,101210.97
2022-11-14T05:41:07.919Z,101216.16
2022-11-14T05:43:56.802Z,101213.59
2022-11-14T05:46:44.327Z,101214.44
2022-11-14T05:49:32.366Z,101208.44
2022-11-14T05:52:20.257Z,101210.16
2022-11-14T05:55:08.517Z,101224.84
2022-11-14T05:57:59.093Z,101208.56
2022-11-14T06:00:53.873Z,101214.56
2022-11-14T06:03:44.180Z,101202.66
2022-11-14T06:06:31.720Z,101211.78
2022-11-14T06:09:19.260Z,101134.41
2022-11-14T06:12:07.955Z,101165.16
2022-11-14T06:14:55.035Z,101206.94
2022-11-14T06:17:44.048Z,101201.81
2022-11-14T06:20:31.268Z,101206.00
2022-11-14T06:23:24.769Z,101202.72
2022-11-14T06:26:22.985Z,101209.66
2022-11-14T06:29:11.487Z,101189.25
2022-11-14T06:31:59.241Z,101193.44
2022-11-14T06:34:47.729Z,101204.50
2022-11-14T06:37:37.264Z,101200.34
2022-11-14T06:40:25.261Z,101199.50
2022-11-14T06:43:13.170Z,101202.91
2022-11-14T06:46:00.661Z,101207.22
2022-11-14T06:48:49.245Z,101197.81
2022-11-14T06:51:38.156Z,101207.28
2022-11-14T06:54:26.669Z,101207.94
2022-11-14T06:57:15.288Z,101205.50
2022-11-14T07:00:04.837Z,101201.13
2022-11-14T07:02:53.113Z,101176.69
2022-11-14T07:05:42.083Z,101206.59
2022-11-14T07:08:33.770Z,101209.97
2022-11-14T07:11:26.645Z,101214.22
2022-11-14T07:14:15.282Z,101215.94
2022-11-14T07:17:04.499Z,101208.31
2022-11-14T07:19:53.557Z,101204.84
2022-11-14T07:22:41.777Z,101201.41
2022-11-14T07:25:33.092Z,100935.06
2022-11-14T07:28:23.077Z,101194.63
2022-11-14T07:31:13.672Z,101192.00
2022-11-14T07:34:02.681Z,101205.75
2022-11-14T07:36:50.774Z,101216.84
2022-11-14T07:39:38.199Z,101197.03
2022-11-14T07:42:30.081Z,101196.22
2022-11-14T07:45:17.717Z,101145.22
2022-11-14T07:48:05.195Z,101158.75
2022-11-14T07:50:52.296Z,101201.22
2022-11-14T07:53:39.301Z,101194.94
2022-11-14T07:56:27.010Z,101195.81
2022-11-14T07:59:15.710Z,101175.34
2022-11-14T08:02:02.837Z,101206.78
2022-11-14T08:04:49.992Z,101198.00
2022-11-14T08:07:37.133Z,101185.50
2022-11-14T08:10:31.016Z,101183.97
2022-11-14T08:13:36.917Z,101165.16
2022-11-14T08:16:26.650Z,101177.59
2022-11-14T08:19:16.868Z,101182.72
2022-11-14T08:22:04.647Z,101181.03
2022-11-14T08:24:52.326Z,101177.50
2022-11-14T08:27:39.374Z,101171.34
2022-11-14T08:30:27.291Z,101158.16
2022-11-14T08:33:16.025Z,101168.81
2022-11-14T08:36:03.328Z,101172.47
2022-11-14T08:38:51.748Z,101166.50
2022-11-14T08:41:39.546Z,101160.00
2022-11-14T08:44:26.441Z,101162.69
2022-11-14T08:47:13.804Z,101153.97
2022-11-14T08:50:02.613Z,101155.66
2022-11-14T08:52:53.443Z,101158.09
2022-11-14T08:55:45.258Z,101048.31
2022-11-14T08:58:33.694Z,101100.47
2022-11-14T09:01:21.241Z,101135.22
2022-11-14T09:04:09.768Z,101140.09
2022-11-14T09:06:59.880Z,101139.06
2022-11-14T09:09:47.106Z,101133.72
2022-11-14T09:12:34.633Z,101136.97
2022-11-14T09:15:21.845Z,101134.09
2022-11-14T09:18:10.609Z,101113.34
2022-11-14T09:21:01.617Z,101112.59
2022-11-14T09:23:50.169Z,101116.28
2022-11-14T09:26:37.414Z,101132.03
2022-11-14T09:29:24.964Z,101080.59
2022-11-14T09:32:12.291Z,101117.91
2022-11-14T09:34:59.738Z,101114.91
2022-11-14T09:37:47.123Z,101087.09
2022-11-14T09:40:55.020Z,101099.91
2022-11-14T09:43:58.959Z,101107.13
2022-11-14T09:46:52.736Z,101086.03
2022-11-14T09:49:44.117Z,101146.84
2022-11-14T09:52:37.995Z,101102.28
2022-11-14T09:55:36.557Z,101099.34
2022-11-14T09:58:29.202Z,101096.25
2022-11-14T10:01:26.985Z,101096.84
2022-11-14T10:04:25.111Z,101083.41
2022-11-14T10:07:25.914Z,100950.78
2022-11-14T10:10:35.733Z,101087.84
2022-11-14T10:13:44.860Z,101056.53
2022-11-14T10:16:42.175Z,101072.41
2022-11-14T10:19:42.680Z,101027.06
2022-11-14T10:22:53.019Z,101076.78
2022-11-14T10:25:56.028Z,101060.69
2022-11-14T10:28:56.949Z,101073.00
2022-11-14T10:31:54.928Z,101067.59
2022-11-14T10:34:51.925Z,101035.84
2022-11-14T10:37:47.137Z,101068.59
2022-11-14T10:40:41.438Z,101077.44
2022-11-14T10:43:35.228Z,101082.19
2022-11-14T10:46:25.647Z,101062.34
2022-11-14T10:49:19.326Z,101059.78
2022-11-14T10:52:14.253Z,100913.94
2022-11-14T10:55:07.773Z,101055.94
2022-11-14T10:57:54.938Z,101050.63
2022-11-14T11:00:42.102Z,101046.69
2022-11-14T11:03:43.568Z,101033.00
2022-11-14T11:06:34.372Z,101036.09
2022-11-14T11:09:45.513Z,101019.13
2022-11-14T11:12:46.297Z,100966.84
2022-11-14T11:15:41.758Z,101011.28
2022-11-14T11:18:32.787Z,101014.78
2022-11-14T11:21:25.045Z,100999.44
2022-11-14T11:24:28.362Z,101000.22
2022-11-14T11:27:24.230Z,101005.09
2022-11-14T11:30:23.484Z,101005.44
2022-11-14T11:33:25.409Z,100968.56
2022-11-14T11:36:19.552Z,101008.84
2022-11-14T11:39:15.214Z,101012.97
2022-11-14T11:42:10.894Z,101013.22
2022-11-14T11:45:01.648Z,100993.31
2022-11-14T11:47:58.607Z,101004.50
2022-11-14T11:50:47.378Z,100994.19
2022-11-14T11:53:38.752Z,100997.00
2022-11-14T11:56:32.846Z,100985.50
2022-11-14T11:59:33.797Z,100988.75
2022-11-14T12:02:27.282Z,101020.09
2022-11-14T12:05:18.622Z,100984.44
2022-11-14T12:08:14.076Z,100993.34
2022-11-14T12:11:15.684Z,100991.38
2022-11-14T12:14:38.028Z,100974.75
2022-11-14T12:18:01.815Z,100993.47
2022-11-14T12:20:57.373Z,100968.00
2022-11-14T12:24:04.674Z,100949.72
2022-11-14T12:27:04.815Z,100950.81
2022-11-14T12:30:10.458Z,100958.72
2022-11-14T12:33:04.097Z,100947.41
2022-11-14T12:35:56.293Z,100944.38
2022-11-14T12:38:46.920Z,100900.59
2022-11-14T12:41:38.621Z,100934.91
2022-11-14T12:44:38.470Z,100949.41
2022-11-14T12:47:29.042Z,100945.47
2022-11-14T12:50:36.604Z,100939.72
2022-11-14T12:53:44.489Z,100939.44
2022-11-14T15:42:55.290Z,100858.44
2022-11-14T15:45:42.805Z,100851.22
2022-11-14T15:53:19.895Z,100856.66
2022-11-14T15:56:12.057Z,100859.16
2022-11-14T15:59:02.039Z,100856.53
2022-11-14T16:01:52.275Z,100851.13
2022-11-14T16:04:45.985Z,100854.78
2022-11-14T16:07:35.177Z,100846.78
2022-11-14T16:10:24.672Z,100855.81
2022-11-14T16:13:13.297Z,100843.47
2022-11-14T16:16:00.833Z,100854.75
2022-11-14T16:18:48.508Z,100849.25
2022-11-14T16:21:38.815Z,100834.81
2022-11-14T16:24:31.116Z,100845.16
2022-11-14T16:27:21.078Z,100842.28
2022-11-14T16:30:11.916Z,100836.75
2022-11-14T16:33:01.531Z,100834.72
2022-11-14T16:35:48.676Z,100796.75
2022-11-14T16:38:35.937Z,100836.38
2022-11-14T16:41:24.323Z,100836.91
2022-11-14T16:44:16.160Z,100832.34
2022-11-14T16:47:06.658Z,100825.41
2022-11-14T16:49:53.967Z,100837.41
2022-11-14T16:52:41.281Z,100836.75
2022-11-14T16:55:28.922Z,100820.66
2022-11-14T16:58:16.278Z,100831.38
2022-11-14T17:01:11.614Z,100827.44
2022-11-14T17:04:02.433Z,100832.16
2022-11-14T17:06:50.066Z,100824.72
2022-11-14T17:09:37.200Z,100823.56
2022-11-14T17:12:25.387Z,100834.97
2022-11-14T17:15:12.614Z,100829.75
2022-11-14T17:18:00.423Z,100822.28
2022-11-14T17:20:48.938Z,100819.09
2022-11-14T17:23:36.727Z,100657.31
2022-11-14T17:26:24.948Z,100756.75
2022-11-14T17:29:12.835Z,100809.09
2022-11-14T17:32:01.101Z,100821.13
2022-11-14T17:34:48.601Z,100809.66
2022-11-14T17:37:37.925Z,100802.09
2022-11-14T17:40:24.861Z,100814.75
2022-11-14T17:43:11.940Z,100810.88
2022-11-14T17:45:59.281Z,100816.13
2022-11-14T17:48:48.432Z,100801.72
2022-11-14T17:51:36.032Z,100817.38
2022-11-14T17:54:25.757Z,100820.34
2022-11-14T17:57:13.904Z,100790.28
2022-11-14T18:00:04.362Z,100818.34
2022-11-14T18:02:53.786Z,100787.97
2022-11-14T18:05:42.035Z,100818.34
2022-11-14T18:08:31.493Z,100807.56
2022-11-14T18:11:22.717Z,100807.19
2022-11-14T18:14:12.093Z,100810.19
2022-11-14T18:17:12.882Z,100801.75
2022-11-14T18:20:02.814Z,100819.31
2022-11-14T18:22:51.407Z,100818.03
2022-11-14T18:25:40.540Z,100735.38
2022-11-14T18:28:30.761Z,100799.94
2022-11-14T18:31:20.238Z,100808.19
2022-11-14T18:34:09.059Z,100809.31
2022-11-14T18:36:58.853Z,100818.44
2022-11-14T18:39:47.780Z,100802.94
2022-11-14T18:42:35.464Z,100809.44
2022-11-14T18:45:24.908Z,100787.84
2022-11-14T18:48:12.457Z,100794.75
2022-11-14T18:51:02.935Z,100769.09
2022-11-14T18:53:51.074Z,100795.66
2022-11-14T18:56:39.195Z,100796.91
2022-11-14T18:59:28.008Z,100794.00
2022-11-14T19:02:17.971Z,100798.41
2022-11-14T19:05:05.771Z,100789.19
2022-11-14T19:07:52.969Z,100796.16
2022-11-14T19:10:40.195Z,100804.81
2022-11-14T19:13:33.431Z,100807.81
2022-11-14T19:16:21.412Z,100772.09
2022-11-14T19:19:12.165Z,100802.78
2022-11-14T19:22:00.013Z,100807.63
2022-11-14T19:24:47.159Z,100810.59
2022-11-14T19:27:34.566Z,100809.34
2022-11-14T19:30:22.432Z,100801.94
2022-11-14T19:33:10.414Z,100805.19
2022-11-14T19:36:05.304Z,100813.22
2022-11-14T19:38:55.202Z,100797.69
2022-11-14T19:41:42.737Z,100808.63
2022-11-14T19:44:29.950Z,100806.25
2022-11-14T19:47:18.009Z,100599.28
2022-11-14T19:50:05.986Z,100808.97
2022-11-14T19:53:07.113Z,100807.81
2022-11-14T19:56:00.465Z,100592.16
2022-11-14T19:58:49.268Z,100816.81
2022-11-14T20:01:39.052Z,100667.03
2022-11-14T20:04:29.057Z,100803.41
2022-11-14T20:07:16.501Z,100799.91
2022-11-14T20:10:07.524Z,100785.66
2022-11-14T20:12:54.800Z,100764.69
2022-11-14T20:15:42.289Z,100781.53
2022-11-14T20:18:31.240Z,100790.72
2022-11-14T20:21:28.432Z,100787.38
2022-11-14T20:24:21.601Z,100782.66
2022-11-14T20:27:12.168Z,100800.59
2022-11-14T20:30:01.718Z,100781.34
2022-11-14T20:32:50.880Z,100761.59
2022-11-14T20:35:40.199Z,100588.28
2022-11-14T20:38:31.090Z,100776.78
2022-11-14T20:41:20.148Z,100779.41
2022-11-14T20:44:10.270Z,100768.94
2022-11-14T20:46:59.141Z,100773.44
2022-11-14T20:49:51.504Z,100765.19
2022-11-14T20:52:39.846Z,100770.13
2022-11-14T20:55:28.008Z,100791.34
2022-11-14T20:58:17.582Z,100742.72
2022-11-14T21:01:10.353Z,100755.69
2022-11-14T21:03:59.535Z,100751.66
2022-11-14T21:06:47.032Z,100760.72
2022-11-14T21:09:34.548Z,100756.72
2022-11-14T21:12:21.607Z,100755.97
2022-11-14T21:15:10.125Z,100752.44
2022-11-14T21:17:59.900Z,100757.28
2022-11-14T21:20:48.024Z,100728.75
2022-11-14T21:23:36.147Z,100765.56
2022-11-14T21:26:25.204Z,100735.69
2022-11-14T21:29:15.591Z,100758.16
2022-11-14T21:32:03.971Z,100754.41
2022-11-14T21:34:53.269Z,100708.97
2022-11-14T21:37:40.219Z,100732.78
2022-11-14T21:40:27.796Z,100751.94
2022-11-14T21:43:16.067Z,100751.13
2022-11-14T21:46:09.187Z,100745.25
2022-11-14T21:48:58.229Z,100753.00
2022-11-14T21:51:48.357Z,100751.41
2022-11-14T21:54:35.403Z,100749.09
2022-11-14T21:57:23.393Z,100773.56
2022-11-14T22:00:15.306Z,100734.97
2022-11-14T22:03:20.773Z,100741.50
2022-11-14T22:06:08.502Z,100739.81
2022-11-14T22:08:56.929Z,100739.19
2022-11-14T22:11:44.175Z,100738.50
2022-11-14T22:14:32.435Z,100731.03
2022-11-14T22:17:20.463Z,100735.66
2022-11-14T22:20:08.979Z,100725.72
2022-11-14T22:22:56.313Z,100707.88
2022-11-14T22:25:45.104Z,100725.38
2022-11-14T22:28:32.620Z,100724.97
2022-11-14T22:31:22.459Z,100718.41
2022-11-14T22:34:12.822Z,100714.84
2022-11-14T22:37:01.788Z,100719.38
2022-11-14T22:39:48.710Z,100720.88
2022-11-14T22:42:37.472Z,100706.66
2022-11-14T22:45:25.526Z,100722.72
2022-11-14T22:48:12.712Z,100723.44
2022-11-14T22:51:02.427Z,100721.97
2022-11-14T22:53:52.503Z,100550.47
2022-11-14T22:56:39.685Z,100710.81
2022-11-14T22:59:28.055Z,100710.06
2022-11-14T23:02:15.879Z,100698.06
2022-11-14T23:05:03.475Z,100677.31
2022-11-14T23:07:50.746Z,100660.84
2022-11-14T23:10:38.006Z,100690.50
2022-11-14T23:13:25.476Z,100695.75
2022-11-14T23:16:18.746Z,100702.97
2022-11-14T23:19:06.881Z,100701.69
2022-11-14T23:21:55.161Z,100695.00
2022-11-14T23:24:44.799Z,100702.66
2022-11-14T23:27:32.143Z,100692.72
2022-11-14T23:30:19.565Z,100687.97
2022-11-14T23:33:08.962Z,100686.88
2022-11-14T23:35:56.349Z,100633.53
2022-11-14T23:38:44.387Z,100678.66
2022-11-14T23:41:34.357Z,100687.03
2022-11-14T23:44:21.485Z,100683.31
2022-11-14T23:47:09.625Z,100661.00
2022-11-14T23:49:58.500Z,100662.63
2022-11-14T23:52:45.603Z,100676.03
2022-11-14T23:55:33.813Z,100673.78
2022-11-14T23:58:23.832Z,100673.31
